sensor_id;sensor_type;location;lat;lon;timestamp;P1;durP1;ratioP1;P2;durP2;ratioP2
15712;SDS011;7957;51.608;6.916;2023-07-31T00:00:10;1.60;;;1.50;;
15712;SDS011;7957;51.608;6.916;2023-07-31T00:02:38;1.60;;;1.50;;
15712;SDS011;7957;51.608;6.916;2023-07-31T00:05:05;1.37;;;1.27;;
15712;SDS011;7957;51.608;6.916;2023-07-31T00:07:32;1.87;;;1.70;;
15712;SDS011;7957;51.608;6.916;2023-07-31T00:09:59;1.50;;;1.40;;
15712;SDS011;7957;51.608;6.916;2023-07-31T00:12:27;1.50;;;1.40;;
15712;SDS011;7957;51.608;6.916;2023-07-31T00:14:54;1.53;;;1.43;;
15712;SDS011;7957;51.608;6.916;2023-07-31T00:17:21;1.83;;;1.40;;
15712;SDS011;7957;51.608;6.916;2023-07-31T00:19:48;1.73;;;1.63;;
15712;SDS011;7957;51.608;6.916;2023-07-31T00:22:15;1.67;;;1.53;;
15712;SDS011;7957;51.608;6.916;2023-07-31T00:24:42;2.00;;;1.90;;
15712;SDS011;7957;51.608;6.916;2023-07-31T00:27:09;1.97;;;1.73;;
15712;SDS011;7957;51.608;6.916;2023-07-31T00:29:38;1.70;;;1.60;;
15712;SDS011;7957;51.608;6.916;2023-07-31T00:32:05;2.27;;;2.00;;
15712;SDS011;7957;51.608;6.916;2023-07-31T00:34:32;2.37;;;2.10;;
15712;SDS011;7957;51.608;6.916;2023-07-31T00:36:59;3.63;;;2.33;;
15712;SDS011;7957;51.608;6.916;2023-07-31T00:39:26;2.60;;;2.40;;
15712;SDS011;7957;51.608;6.916;2023-07-31T00:41:53;3.77;;;2.50;;
15712;SDS011;7957;51.608;6.916;2023-07-31T00:44:20;5.40;;;3.30;;
15712;SDS011;7957;51.608;6.916;2023-07-31T00:46:48;3.23;;;2.93;;
15712;SDS011;7957;51.608;6.916;2023-07-31T00:49:15;4.47;;;3.37;;
15712;SDS011;7957;51.608;6.916;2023-07-31T00:51:42;4.47;;;3.37;;
15712;SDS011;7957;51.608;6.916;2023-07-31T00:54:09;5.07;;;3.60;;
15712;SDS011;7957;51.608;6.916;2023-07-31T00:56:37;7.27;;;4.37;;
15712;SDS011;7957;51.608;6.916;2023-07-31T00:59:06;8.40;;;4.57;;
15712;SDS011;7957;51.608;6.916;2023-07-31T01:01:33;6.07;;;4.47;;
15712;SDS011;7957;51.608;6.916;2023-07-31T01:04:01;6.40;;;4.43;;
15712;SDS011;7957;51.608;6.916;2023-07-31T01:06:31;8.47;;;5.20;;
15712;SDS011;7957;51.608;6.916;2023-07-31T01:09:03;7.77;;;4.53;;
15712;SDS011;7957;51.608;6.916;2023-07-31T01:11:34;8.73;;;5.07;;
15712;SDS011;7957;51.608;6.916;2023-07-31T01:14:08;7.47;;;4.87;;
15712;SDS011;7957;51.608;6.916;2023-07-31T01:16:35;10.97;;;6.17;;
15712;SDS011;7957;51.608;6.916;2023-07-31T01:19:04;8.83;;;5.70;;
15712;SDS011;7957;51.608;6.916;2023-07-31T01:21:38;10.03;;;5.60;;
15712;SDS011;7957;51.608;6.916;2023-07-31T01:24:20;10.27;;;5.47;;
15712;SDS011;7957;51.608;6.916;2023-07-31T01:26:52;9.37;;;6.10;;
15712;SDS011;7957;51.608;6.916;2023-07-31T01:29:24;10.20;;;6.17;;
15712;SDS011;7957;51.608;6.916;2023-07-31T01:31:57;10.13;;;5.83;;
15712;SDS011;7957;51.608;6.916;2023-07-31T01:34:27;10.37;;;6.10;;
15712;SDS011;7957;51.608;6.916;2023-07-31T01:36:55;11.37;;;6.30;;
15712;SDS011;7957;51.608;6.916;2023-07-31T01:39:22;7.63;;;5.27;;
15712;SDS011;7957;51.608;6.916;2023-07-31T01:41:53;9.00;;;5.67;;
15712;SDS011;7957;51.608;6.916;2023-07-31T01:44:21;8.40;;;5.27;;
15712;SDS011;7957;51.608;6.916;2023-07-31T01:46:48;9.00;;;5.70;;
15712;SDS011;7957;51.608;6.916;2023-07-31T01:49:15;9.97;;;5.77;;
15712;SDS011;7957;51.608;6.916;2023-07-31T01:51:42;10.40;;;6.20;;
15712;SDS011;7957;51.608;6.916;2023-07-31T01:54:09;9.77;;;5.73;;
15712;SDS011;7957;51.608;6.916;2023-07-31T01:56:36;9.30;;;5.63;;
15712;SDS011;7957;51.608;6.916;2023-07-31T01:59:04;8.03;;;5.23;;
15712;SDS011;7957;51.608;6.916;2023-07-31T02:01:31;10.30;;;5.80;;
15712;SDS011;7957;51.608;6.916;2023-07-31T02:03:58;8.23;;;5.60;;
15712;SDS011;7957;51.608;6.916;2023-07-31T02:06:25;9.37;;;5.60;;
15712;SDS011;7957;51.608;6.916;2023-07-31T02:08:52;10.23;;;5.97;;
15712;SDS011;7957;51.608;6.916;2023-07-31T02:11:19;8.53;;;5.53;;
15712;SDS011;7957;51.608;6.916;2023-07-31T02:13:46;9.53;;;5.63;;
15712;SDS011;7957;51.608;6.916;2023-07-31T02:16:14;9.43;;;5.87;;
15712;SDS011;7957;51.608;6.916;2023-07-31T02:18:41;9.30;;;5.83;;
15712;SDS011;7957;51.608;6.916;2023-07-31T02:21:08;9.90;;;5.63;;
15712;SDS011;7957;51.608;6.916;2023-07-31T02:23:35;11.90;;;5.90;;
15712;SDS011;7957;51.608;6.916;2023-07-31T02:26:02;9.60;;;5.83;;
15712;SDS011;7957;51.608;6.916;2023-07-31T02:28:29;9.83;;;5.57;;
15712;SDS011;7957;51.608;6.916;2023-07-31T02:30:56;10.00;;;6.00;;
15712;SDS011;7957;51.608;6.916;2023-07-31T02:33:25;9.47;;;5.50;;
15712;SDS011;7957;51.608;6.916;2023-07-31T02:35:51;10.53;;;5.90;;
15712;SDS011;7957;51.608;6.916;2023-07-31T02:38:18;12.43;;;5.47;;
15712;SDS011;7957;51.608;6.916;2023-07-31T02:40:45;11.80;;;5.73;;
15712;SDS011;7957;51.608;6.916;2023-07-31T02:43:13;8.57;;;5.67;;
15712;SDS011;7957;51.608;6.916;2023-07-31T02:45:40;8.70;;;5.43;;
15712;SDS011;7957;51.608;6.916;2023-07-31T02:48:07;9.23;;;5.83;;
15712;SDS011;7957;51.608;6.916;2023-07-31T02:50:35;11.80;;;6.40;;
15712;SDS011;7957;51.608;6.916;2023-07-31T02:53:03;7.13;;;5.27;;
15712;SDS011;7957;51.608;6.916;2023-07-31T02:55:29;8.37;;;5.67;;
15712;SDS011;7957;51.608;6.916;2023-07-31T02:57:56;9.27;;;5.73;;
15712;SDS011;7957;51.608;6.916;2023-07-31T03:00:24;9.77;;;5.70;;
15712;SDS011;7957;51.608;6.916;2023-07-31T03:02:50;7.30;;;5.63;;
15712;SDS011;7957;51.608;6.916;2023-07-31T03:05:17;10.30;;;5.53;;
15712;SDS011;7957;51.608;6.916;2023-07-31T03:07:46;9.23;;;5.87;;
15712;SDS011;7957;51.608;6.916;2023-07-31T03:10:13;8.43;;;5.80;;
15712;SDS011;7957;51.608;6.916;2023-07-31T03:12:40;9.13;;;5.90;;
15712;SDS011;7957;51.608;6.916;2023-07-31T03:15:08;8.93;;;5.70;;
15712;SDS011;7957;51.608;6.916;2023-07-31T03:17:35;11.53;;;6.43;;
15712;SDS011;7957;51.608;6.916;2023-07-31T03:20:02;9.90;;;5.63;;
15712;SDS011;7957;51.608;6.916;2023-07-31T03:22:30;8.97;;;5.67;;
15712;SDS011;7957;51.608;6.916;2023-07-31T03:24:58;12.00;;;6.47;;
15712;SDS011;7957;51.608;6.916;2023-07-31T03:27:25;9.57;;;6.00;;
15712;SDS011;7957;51.608;6.916;2023-07-31T03:29:52;13.37;;;6.47;;
15712;SDS011;7957;51.608;6.916;2023-07-31T03:32:19;10.20;;;6.37;;
15712;SDS011;7957;51.608;6.916;2023-07-31T03:34:46;10.73;;;6.00;;
15712;SDS011;7957;51.608;6.916;2023-07-31T03:37:13;12.70;;;6.47;;
15712;SDS011;7957;51.608;6.916;2023-07-31T03:39:40;11.23;;;6.23;;
15712;SDS011;7957;51.608;6.916;2023-07-31T03:42:08;13.20;;;5.93;;
15712;SDS011;7957;51.608;6.916;2023-07-31T03:44:35;12.67;;;6.23;;
15712;SDS011;7957;51.608;6.916;2023-07-31T03:47:02;9.47;;;6.13;;
15712;SDS011;7957;51.608;6.916;2023-07-31T03:49:29;12.23;;;6.57;;
15712;SDS011;7957;51.608;6.916;2023-07-31T03:51:56;10.87;;;6.53;;
15712;SDS011;7957;51.608;6.916;2023-07-31T03:54:23;11.10;;;6.10;;
15712;SDS011;7957;51.608;6.916;2023-07-31T03:56:50;10.77;;;5.73;;
15712;SDS011;7957;51.608;6.916;2023-07-31T03:59:19;9.10;;;5.87;;
15712;SDS011;7957;51.608;6.916;2023-07-31T04:01:46;10.33;;;5.80;;
15712;SDS011;7957;51.608;6.916;2023-07-31T04:04:12;11.47;;;6.00;;
15712;SDS011;7957;51.608;6.916;2023-07-31T04:06:40;11.00;;;6.10;;
15712;SDS011;7957;51.608;6.916;2023-07-31T04:09:06;12.07;;;6.43;;
15712;SDS011;7957;51.608;6.916;2023-07-31T04:11:33;10.73;;;6.33;;
15712;SDS011;7957;51.608;6.916;2023-07-31T04:14:00;8.80;;;6.03;;
15712;SDS011;7957;51.608;6.916;2023-07-31T04:16:28;10.60;;;6.30;;
15712;SDS011;7957;51.608;6.916;2023-07-31T04:18:55;11.20;;;6.20;;
15712;SDS011;7957;51.608;6.916;2023-07-31T04:21:22;10.87;;;6.30;;
15712;SDS011;7957;51.608;6.916;2023-07-31T04:23:49;14.13;;;6.20;;
15712;SDS011;7957;51.608;6.916;2023-07-31T04:26:16;8.67;;;5.90;;
15712;SDS011;7957;51.608;6.916;2023-07-31T04:28:43;11.30;;;5.97;;
15712;SDS011;7957;51.608;6.916;2023-07-31T04:31:09;10.50;;;6.17;;
15712;SDS011;7957;51.608;6.916;2023-07-31T04:33:38;12.47;;;6.77;;
15712;SDS011;7957;51.608;6.916;2023-07-31T04:36:06;10.20;;;6.23;;
15712;SDS011;7957;51.608;6.916;2023-07-31T04:38:32;10.57;;;6.20;;
15712;SDS011;7957;51.608;6.916;2023-07-31T04:40:59;11.20;;;6.57;;
15712;SDS011;7957;51.608;6.916;2023-07-31T04:43:26;12.93;;;6.23;;
15712;SDS011;7957;51.608;6.916;2023-07-31T04:45:53;10.43;;;5.90;;
15712;SDS011;7957;51.608;6.916;2023-07-31T04:48:21;9.83;;;6.10;;
15712;SDS011;7957;51.608;6.916;2023-07-31T04:50:49;10.17;;;6.20;;
15712;SDS011;7957;51.608;6.916;2023-07-31T04:53:32;9.80;;;6.03;;
15712;SDS011;7957;51.608;6.916;2023-07-31T04:55:59;11.37;;;6.87;;
15712;SDS011;7957;51.608;6.916;2023-07-31T04:58:26;11.50;;;6.10;;
15712;SDS011;7957;51.608;6.916;2023-07-31T05:00:55;13.13;;;6.63;;
15712;SDS011;7957;51.608;6.916;2023-07-31T05:03:22;11.73;;;6.57;;
15712;SDS011;7957;51.608;6.916;2023-07-31T05:05:50;10.63;;;6.00;;
15712;SDS011;7957;51.608;6.916;2023-07-31T05:08:17;11.03;;;6.27;;
15712;SDS011;7957;51.608;6.916;2023-07-31T05:10:44;10.13;;;5.90;;
15712;SDS011;7957;51.608;6.916;2023-07-31T05:13:11;12.53;;;6.13;;
15712;SDS011;7957;51.608;6.916;2023-07-31T05:15:38;8.13;;;5.97;;
15712;SDS011;7957;51.608;6.916;2023-07-31T05:18:05;9.87;;;6.43;;
15712;SDS011;7957;51.608;6.916;2023-07-31T05:20:32;10.10;;;6.00;;
15712;SDS011;7957;51.608;6.916;2023-07-31T05:23:00;11.00;;;6.43;;
15712;SDS011;7957;51.608;6.916;2023-07-31T05:25:27;9.70;;;6.30;;
15712;SDS011;7957;51.608;6.916;2023-07-31T05:27:54;14.03;;;6.50;;
15712;SDS011;7957;51.608;6.916;2023-07-31T05:30:21;11.63;;;6.33;;
15712;SDS011;7957;51.608;6.916;2023-07-31T05:32:48;10.60;;;6.43;;
15712;SDS011;7957;51.608;6.916;2023-07-31T05:35:15;8.97;;;6.07;;
15712;SDS011;7957;51.608;6.916;2023-07-31T05:37:42;11.93;;;5.97;;
15712;SDS011;7957;51.608;6.916;2023-07-31T05:40:11;10.83;;;6.47;;
15712;SDS011;7957;51.608;6.916;2023-07-31T05:42:37;8.20;;;5.90;;
15712;SDS011;7957;51.608;6.916;2023-07-31T05:45:05;10.03;;;6.60;;
15712;SDS011;7957;51.608;6.916;2023-07-31T05:47:32;9.47;;;6.20;;
15712;SDS011;7957;51.608;6.916;2023-07-31T05:49:59;11.40;;;6.97;;
15712;SDS011;7957;51.608;6.916;2023-07-31T05:52:26;10.77;;;6.90;;
15712;SDS011;7957;51.608;6.916;2023-07-31T05:54:54;11.20;;;6.40;;
15712;SDS011;7957;51.608;6.916;2023-07-31T05:57:23;9.30;;;6.20;;
15712;SDS011;7957;51.608;6.916;2023-07-31T05:59:49;10.63;;;6.90;;
15712;SDS011;7957;51.608;6.916;2023-07-31T06:02:18;9.13;;;6.43;;
15712;SDS011;7957;51.608;6.916;2023-07-31T06:04:45;11.00;;;6.37;;
15712;SDS011;7957;51.608;6.916;2023-07-31T06:07:12;11.70;;;7.00;;
15712;SDS011;7957;51.608;6.916;2023-07-31T06:09:39;9.63;;;6.60;;
15712;SDS011;7957;51.608;6.916;2023-07-31T06:12:06;12.10;;;6.67;;
15712;SDS011;7957;51.608;6.916;2023-07-31T06:14:35;10.70;;;6.30;;
15712;SDS011;7957;51.608;6.916;2023-07-31T06:17:02;9.70;;;6.20;;
15712;SDS011;7957;51.608;6.916;2023-07-31T06:19:29;10.17;;;6.53;;
15712;SDS011;7957;51.608;6.916;2023-07-31T06:21:56;11.03;;;7.13;;
15712;SDS011;7957;51.608;6.916;2023-07-31T06:24:23;10.17;;;6.60;;
15712;SDS011;7957;51.608;6.916;2023-07-31T06:26:50;9.50;;;6.20;;
15712;SDS011;7957;51.608;6.916;2023-07-31T06:29:17;9.03;;;6.53;;
15712;SDS011;7957;51.608;6.916;2023-07-31T06:31:45;10.67;;;6.53;;
15712;SDS011;7957;51.608;6.916;2023-07-31T06:34:13;9.90;;;6.47;;
15712;SDS011;7957;51.608;6.916;2023-07-31T06:36:40;8.07;;;6.17;;
15712;SDS011;7957;51.608;6.916;2023-07-31T06:39:07;12.43;;;6.50;;
15712;SDS011;7957;51.608;6.916;2023-07-31T06:41:34;9.13;;;6.47;;
15712;SDS011;7957;51.608;6.916;2023-07-31T06:44:01;9.27;;;6.20;;
15712;SDS011;7957;51.608;6.916;2023-07-31T06:46:28;8.87;;;6.63;;
15712;SDS011;7957;51.608;6.916;2023-07-31T06:48:57;11.63;;;6.57;;
15712;SDS011;7957;51.608;6.916;2023-07-31T06:51:24;10.20;;;6.47;;
15712;SDS011;7957;51.608;6.916;2023-07-31T06:53:51;9.57;;;6.50;;
15712;SDS011;7957;51.608;6.916;2023-07-31T06:56:18;9.73;;;6.97;;
15712;SDS011;7957;51.608;6.916;2023-07-31T06:58:45;7.63;;;5.90;;
15712;SDS011;7957;51.608;6.916;2023-07-31T07:01:12;11.70;;;7.20;;
15712;SDS011;7957;51.608;6.916;2023-07-31T07:03:39;8.80;;;6.57;;
15712;SDS011;7957;51.608;6.916;2023-07-31T07:06:07;9.33;;;6.40;;
15712;SDS011;7957;51.608;6.916;2023-07-31T07:08:34;6.50;;;5.77;;
15712;SDS011;7957;51.608;6.916;2023-07-31T07:11:01;8.90;;;6.50;;
15712;SDS011;7957;51.608;6.916;2023-07-31T07:13:27;9.90;;;6.60;;
15712;SDS011;7957;51.608;6.916;2023-07-31T07:15:54;8.27;;;5.97;;
15712;SDS011;7957;51.608;6.916;2023-07-31T07:18:21;9.27;;;6.93;;
15712;SDS011;7957;51.608;6.916;2023-07-31T07:20:49;7.67;;;6.40;;
15712;SDS011;7957;51.608;6.916;2023-07-31T07:23:18;8.67;;;6.10;;
15712;SDS011;7957;51.608;6.916;2023-07-31T07:25:46;8.93;;;6.20;;
15712;SDS011;7957;51.608;6.916;2023-07-31T07:28:13;8.03;;;5.87;;
15712;SDS011;7957;51.608;6.916;2023-07-31T07:30:40;7.57;;;5.77;;
15712;SDS011;7957;51.608;6.916;2023-07-31T07:33:07;6.50;;;5.83;;
15712;SDS011;7957;51.608;6.916;2023-07-31T07:35:34;8.53;;;6.10;;
15712;SDS011;7957;51.608;6.916;2023-07-31T07:38:02;8.73;;;6.37;;
15712;SDS011;7957;51.608;6.916;2023-07-31T07:40:30;7.00;;;6.00;;
15712;SDS011;7957;51.608;6.916;2023-07-31T07:42:57;7.50;;;5.47;;
15712;SDS011;7957;51.608;6.916;2023-07-31T07:45:25;7.63;;;5.50;;
15712;SDS011;7957;51.608;6.916;2023-07-31T07:47:52;8.27;;;5.90;;
15712;SDS011;7957;51.608;6.916;2023-07-31T07:50:19;6.13;;;5.53;;
15712;SDS011;7957;51.608;6.916;2023-07-31T07:52:46;6.53;;;5.53;;
15712;SDS011;7957;51.608;6.916;2023-07-31T07:55:12;7.03;;;6.07;;
15712;SDS011;7957;51.608;6.916;2023-07-31T07:57:41;8.37;;;5.87;;
15712;SDS011;7957;51.608;6.916;2023-07-31T08:00:09;5.80;;;5.20;;
15712;SDS011;7957;51.608;6.916;2023-07-31T08:02:36;8.70;;;5.40;;
15712;SDS011;7957;51.608;6.916;2023-07-31T08:05:03;5.57;;;5.07;;
15712;SDS011;7957;51.608;6.916;2023-07-31T08:07:31;8.07;;;5.47;;
15712;SDS011;7957;51.608;6.916;2023-07-31T08:09:58;5.50;;;4.83;;
15712;SDS011;7957;51.608;6.916;2023-07-31T08:12:24;5.97;;;5.10;;
15712;SDS011;7957;51.608;6.916;2023-07-31T08:14:53;6.40;;;5.37;;
15712;SDS011;7957;51.608;6.916;2023-07-31T08:17:20;5.47;;;4.60;;
15712;SDS011;7957;51.608;6.916;2023-07-31T08:19:46;5.30;;;3.97;;
15712;SDS011;7957;51.608;6.916;2023-07-31T08:22:13;4.73;;;4.27;;
15712;SDS011;7957;51.608;6.916;2023-07-31T08:24:40;4.67;;;4.03;;
15712;SDS011;7957;51.608;6.916;2023-07-31T08:27:07;4.60;;;3.90;;
15712;SDS011;7957;51.608;6.916;2023-07-31T08:29:34;5.77;;;4.00;;
15712;SDS011;7957;51.608;6.916;2023-07-31T08:32:02;4.37;;;3.50;;
15712;SDS011;7957;51.608;6.916;2023-07-31T08:34:29;4.53;;;4.13;;
15712;SDS011;7957;51.608;6.916;2023-07-31T08:36:56;5.23;;;4.03;;
15712;SDS011;7957;51.608;6.916;2023-07-31T08:39:23;4.80;;;3.90;;
15712;SDS011;7957;51.608;6.916;2023-07-31T08:41:50;4.67;;;3.87;;
15712;SDS011;7957;51.608;6.916;2023-07-31T08:44:17;4.80;;;4.10;;
15712;SDS011;7957;51.608;6.916;2023-07-31T08:46:45;3.80;;;3.50;;
15712;SDS011;7957;51.608;6.916;2023-07-31T08:49:15;6.47;;;4.20;;
15712;SDS011;7957;51.608;6.916;2023-07-31T08:51:44;4.20;;;3.57;;
15712;SDS011;7957;51.608;6.916;2023-07-31T08:54:14;3.77;;;3.37;;
15712;SDS011;7957;51.608;6.916;2023-07-31T08:56:40;4.27;;;3.87;;
15712;SDS011;7957;51.608;6.916;2023-07-31T08:59:09;4.00;;;3.63;;
15712;SDS011;7957;51.608;6.916;2023-07-31T09:01:40;5.07;;;3.53;;
15712;SDS011;7957;51.608;6.916;2023-07-31T09:04:16;4.90;;;3.70;;
15712;SDS011;7957;51.608;6.916;2023-07-31T09:06:44;4.80;;;3.57;;
15712;SDS011;7957;51.608;6.916;2023-07-31T09:09:13;4.73;;;3.77;;
15712;SDS011;7957;51.608;6.916;2023-07-31T09:11:40;4.70;;;3.80;;
15712;SDS011;7957;51.608;6.916;2023-07-31T09:14:08;6.20;;;3.60;;
15712;SDS011;7957;51.608;6.916;2023-07-31T09:16:35;6.10;;;3.83;;
15712;SDS011;7957;51.608;6.916;2023-07-31T09:19:02;4.40;;;3.77;;
15712;SDS011;7957;51.608;6.916;2023-07-31T09:21:31;3.73;;;3.37;;
15712;SDS011;7957;51.608;6.916;2023-07-31T09:23:58;4.03;;;3.63;;
15712;SDS011;7957;51.608;6.916;2023-07-31T09:26:29;4.97;;;3.70;;
15712;SDS011;7957;51.608;6.916;2023-07-31T09:28:57;4.37;;;3.93;;
15712;SDS011;7957;51.608;6.916;2023-07-31T09:31:33;3.80;;;3.40;;
15712;SDS011;7957;51.608;6.916;2023-07-31T09:34:06;4.60;;;3.67;;
15712;SDS011;7957;51.608;6.916;2023-07-31T09:36:35;4.73;;;3.87;;
15712;SDS011;7957;51.608;6.916;2023-07-31T09:39:07;4.60;;;4.10;;
15712;SDS011;7957;51.608;6.916;2023-07-31T09:41:36;6.77;;;4.47;;
15712;SDS011;7957;51.608;6.916;2023-07-31T09:44:03;4.23;;;3.80;;
15712;SDS011;7957;51.608;6.916;2023-07-31T09:46:30;4.53;;;4.13;;
15712;SDS011;7957;51.608;6.916;2023-07-31T09:49:04;5.37;;;4.23;;
15712;SDS011;7957;51.608;6.916;2023-07-31T09:51:32;6.30;;;4.60;;
15712;SDS011;7957;51.608;6.916;2023-07-31T09:54:04;4.73;;;4.27;;
15712;SDS011;7957;51.608;6.916;2023-07-31T09:56:36;4.70;;;4.30;;
15712;SDS011;7957;51.608;6.916;2023-07-31T09:59:06;6.07;;;4.57;;
15712;SDS011;7957;51.608;6.916;2023-07-31T10:01:36;6.13;;;4.60;;
15712;SDS011;7957;51.608;6.916;2023-07-31T10:04:04;5.27;;;4.57;;
15712;SDS011;7957;51.608;6.916;2023-07-31T10:06:33;5.27;;;4.67;;
15712;SDS011;7957;51.608;6.916;2023-07-31T10:09:01;5.47;;;4.97;;
15712;SDS011;7957;51.608;6.916;2023-07-31T10:11:30;5.47;;;4.53;;
15712;SDS011;7957;51.608;6.916;2023-07-31T10:14:03;5.60;;;4.50;;
15712;SDS011;7957;51.608;6.916;2023-07-31T10:16:31;5.03;;;4.43;;
15712;SDS011;7957;51.608;6.916;2023-07-31T10:19:00;6.00;;;4.87;;
15712;SDS011;7957;51.608;6.916;2023-07-31T10:21:28;6.20;;;5.00;;
15712;SDS011;7957;51.608;6.916;2023-07-31T10:23:55;8.23;;;5.10;;
15712;SDS011;7957;51.608;6.916;2023-07-31T10:26:23;6.13;;;5.00;;
15712;SDS011;7957;51.608;6.916;2023-07-31T10:28:53;5.53;;;5.00;;
15712;SDS011;7957;51.608;6.916;2023-07-31T10:31:21;5.67;;;5.03;;
15712;SDS011;7957;51.608;6.916;2023-07-31T10:33:48;5.83;;;5.23;;
15712;SDS011;7957;51.608;6.916;2023-07-31T10:36:17;7.47;;;6.10;;
15712;SDS011;7957;51.608;6.916;2023-07-31T10:38:45;6.60;;;6.00;;
15712;SDS011;7957;51.608;6.916;2023-07-31T10:41:12;6.50;;;5.90;;
15712;SDS011;7957;51.608;6.916;2023-07-31T10:43:39;6.87;;;6.17;;
15712;SDS011;7957;51.608;6.916;2023-07-31T10:46:07;7.90;;;6.10;;
15712;SDS011;7957;51.608;6.916;2023-07-31T10:48:35;6.23;;;5.73;;
15712;SDS011;7957;51.608;6.916;2023-07-31T10:51:06;7.43;;;5.97;;
15712;SDS011;7957;51.608;6.916;2023-07-31T10:53:35;7.57;;;6.47;;
15712;SDS011;7957;51.608;6.916;2023-07-31T10:56:02;7.13;;;6.33;;
15712;SDS011;7957;51.608;6.916;2023-07-31T10:58:30;8.20;;;7.00;;
15712;SDS011;7957;51.608;6.916;2023-07-31T11:01:00;7.27;;;5.87;;
15712;SDS011;7957;51.608;6.916;2023-07-31T11:03:41;7.40;;;5.60;;
15712;SDS011;7957;51.608;6.916;2023-07-31T11:06:08;6.43;;;5.73;;
15712;SDS011;7957;51.608;6.916;2023-07-31T11:08:35;6.17;;;5.53;;
15712;SDS011;7957;51.608;6.916;2023-07-31T11:11:08;8.07;;;6.23;;
15712;SDS011;7957;51.608;6.916;2023-07-31T11:13:42;6.77;;;6.07;;
15712;SDS011;7957;51.608;6.916;2023-07-31T11:16:11;7.07;;;5.37;;
15712;SDS011;7957;51.608;6.916;2023-07-31T11:18:41;6.40;;;5.70;;
15712;SDS011;7957;51.608;6.916;2023-07-31T11:21:09;6.30;;;5.60;;
15712;SDS011;7957;51.608;6.916;2023-07-31T11:23:39;5.80;;;5.20;;
15712;SDS011;7957;51.608;6.916;2023-07-31T11:26:05;6.90;;;5.73;;
15712;SDS011;7957;51.608;6.916;2023-07-31T11:28:33;7.13;;;5.47;;
15712;SDS011;7957;51.608;6.916;2023-07-31T11:31:01;5.90;;;5.30;;
15712;SDS011;7957;51.608;6.916;2023-07-31T11:33:30;6.70;;;5.47;;
15712;SDS011;7957;51.608;6.916;2023-07-31T11:35:58;5.40;;;4.90;;
15712;SDS011;7957;51.608;6.916;2023-07-31T11:38:26;6.47;;;5.30;;
15712;SDS011;7957;51.608;6.916;2023-07-31T11:40:54;6.47;;;4.87;;
15712;SDS011;7957;51.608;6.916;2023-07-31T11:43:22;6.23;;;5.33;;
15712;SDS011;7957;51.608;6.916;2023-07-31T11:45:50;5.50;;;4.57;;
15712;SDS011;7957;51.608;6.916;2023-07-31T11:48:18;5.77;;;5.00;;
15712;SDS011;7957;51.608;6.916;2023-07-31T11:50:47;7.17;;;5.43;;
15712;SDS011;7957;51.608;6.916;2023-07-31T11:53:21;6.50;;;4.87;;
15712;SDS011;7957;51.608;6.916;2023-07-31T11:55:51;5.20;;;3.80;;
15712;SDS011;7957;51.608;6.916;2023-07-31T11:58:18;4.93;;;4.43;;
15712;SDS011;7957;51.608;6.916;2023-07-31T12:00:47;5.73;;;4.87;;
15712;SDS011;7957;51.608;6.916;2023-07-31T12:03:15;5.63;;;5.07;;
15712;SDS011;7957;51.608;6.916;2023-07-31T12:05:42;6.23;;;5.33;;
15712;SDS011;7957;51.608;6.916;2023-07-31T12:08:09;5.63;;;5.10;;
15712;SDS011;7957;51.608;6.916;2023-07-31T12:10:40;6.17;;;5.40;;
15712;SDS011;7957;51.608;6.916;2023-07-31T12:13:08;5.63;;;5.10;;
15712;SDS011;7957;51.608;6.916;2023-07-31T12:15:38;6.73;;;5.53;;
15712;SDS011;7957;51.608;6.916;2023-07-31T12:18:08;8.30;;;5.77;;
15712;SDS011;7957;51.608;6.916;2023-07-31T12:20:40;7.73;;;5.23;;
15712;SDS011;7957;51.608;6.916;2023-07-31T12:23:12;5.97;;;5.37;;
15712;SDS011;7957;51.608;6.916;2023-07-31T12:25:45;5.77;;;5.17;;
15712;SDS011;7957;51.608;6.916;2023-07-31T12:28:12;8.43;;;5.23;;
15712;SDS011;7957;51.608;6.916;2023-07-31T12:30:39;5.63;;;4.97;;
15712;SDS011;7957;51.608;6.916;2023-07-31T12:33:11;6.53;;;5.67;;
15712;SDS011;7957;51.608;6.916;2023-07-31T12:35:40;7.43;;;5.90;;
15712;SDS011;7957;51.608;6.916;2023-07-31T12:38:09;6.20;;;5.60;;
15712;SDS011;7957;51.608;6.916;2023-07-31T12:40:37;5.83;;;5.33;;
15712;SDS011;7957;51.608;6.916;2023-07-31T12:43:06;5.50;;;5.00;;
15712;SDS011;7957;51.608;6.916;2023-07-31T12:45:34;5.47;;;4.90;;
15712;SDS011;7957;51.608;6.916;2023-07-31T12:48:01;5.97;;;5.40;;
15712;SDS011;7957;51.608;6.916;2023-07-31T12:50:28;5.30;;;4.80;;
15712;SDS011;7957;51.608;6.916;2023-07-31T12:52:56;6.37;;;4.87;;
15712;SDS011;7957;51.608;6.916;2023-07-31T12:55:23;5.20;;;4.70;;
15712;SDS011;7957;51.608;6.916;2023-07-31T12:57:50;5.57;;;4.70;;
15712;SDS011;7957;51.608;6.916;2023-07-31T13:00:19;4.53;;;4.10;;
15712;SDS011;7957;51.608;6.916;2023-07-31T13:02:46;5.30;;;4.53;;
15712;SDS011;7957;51.608;6.916;2023-07-31T13:05:13;4.53;;;4.13;;
15712;SDS011;7957;51.608;6.916;2023-07-31T13:07:40;6.27;;;4.80;;
15712;SDS011;7957;51.608;6.916;2023-07-31T13:10:07;5.23;;;4.67;;
15712;SDS011;7957;51.608;6.916;2023-07-31T13:12:36;5.30;;;4.80;;
15712;SDS011;7957;51.608;6.916;2023-07-31T13:15:03;5.00;;;4.50;;
15712;SDS011;7957;51.608;6.916;2023-07-31T13:17:32;5.10;;;4.63;;
15712;SDS011;7957;51.608;6.916;2023-07-31T13:19:59;5.10;;;4.30;;
15712;SDS011;7957;51.608;6.916;2023-07-31T13:22:27;5.13;;;4.40;;
15712;SDS011;7957;51.608;6.916;2023-07-31T13:24:54;7.20;;;4.67;;
15712;SDS011;7957;51.608;6.916;2023-07-31T13:27:20;5.37;;;4.50;;
15712;SDS011;7957;51.608;6.916;2023-07-31T13:29:49;5.37;;;4.77;;
15712;SDS011;7957;51.608;6.916;2023-07-31T13:32:16;6.57;;;4.90;;
15712;SDS011;7957;51.608;6.916;2023-07-31T13:34:47;6.40;;;4.67;;
15712;SDS011;7957;51.608;6.916;2023-07-31T13:37:14;5.67;;;4.90;;
15712;SDS011;7957;51.608;6.916;2023-07-31T13:39:42;4.87;;;4.23;;
15712;SDS011;7957;51.608;6.916;2023-07-31T13:42:09;6.57;;;5.07;;
15712;SDS011;7957;51.608;6.916;2023-07-31T13:44:37;6.03;;;5.03;;
15712;SDS011;7957;51.608;6.916;2023-07-31T13:47:04;5.30;;;4.37;;
15712;SDS011;7957;51.608;6.916;2023-07-31T13:49:31;5.03;;;4.50;;
15712;SDS011;7957;51.608;6.916;2023-07-31T13:52:00;6.90;;;4.67;;
15712;SDS011;7957;51.608;6.916;2023-07-31T13:54:28;5.33;;;4.80;;
15712;SDS011;7957;51.608;6.916;2023-07-31T13:56:55;5.63;;;4.67;;
15712;SDS011;7957;51.608;6.916;2023-07-31T13:59:22;4.90;;;4.50;;
15712;SDS011;7957;51.608;6.916;2023-07-31T14:01:49;5.60;;;5.03;;
15712;SDS011;7957;51.608;6.916;2023-07-31T14:04:17;5.00;;;4.50;;
15712;SDS011;7957;51.608;6.916;2023-07-31T14:06:44;5.03;;;4.30;;
15712;SDS011;7957;51.608;6.916;2023-07-31T14:09:15;6.73;;;4.47;;
15712;SDS011;7957;51.608;6.916;2023-07-31T14:11:42;7.97;;;4.73;;
15712;SDS011;7957;51.608;6.916;2023-07-31T14:14:09;5.07;;;4.57;;
15712;SDS011;7957;51.608;6.916;2023-07-31T14:16:37;4.50;;;4.10;;
15712;SDS011;7957;51.608;6.916;2023-07-31T14:19:04;5.57;;;4.83;;
15712;SDS011;7957;51.608;6.916;2023-07-31T14:21:32;7.43;;;5.00;;
15712;SDS011;7957;51.608;6.916;2023-07-31T14:24:01;7.03;;;4.70;;
15712;SDS011;7957;51.608;6.916;2023-07-31T14:26:29;5.30;;;4.40;;
15712;SDS011;7957;51.608;6.916;2023-07-31T14:28:56;5.23;;;4.73;;
15712;SDS011;7957;51.608;6.916;2023-07-31T14:31:23;5.53;;;4.60;;
15712;SDS011;7957;51.608;6.916;2023-07-31T14:33:50;6.33;;;4.90;;
15712;SDS011;7957;51.608;6.916;2023-07-31T14:36:17;6.37;;;5.73;;
15712;SDS011;7957;51.608;6.916;2023-07-31T14:38:44;6.90;;;4.97;;
15712;SDS011;7957;51.608;6.916;2023-07-31T14:41:11;6.73;;;5.23;;
15712;SDS011;7957;51.608;6.916;2023-07-31T14:43:39;6.13;;;5.53;;
15712;SDS011;7957;51.608;6.916;2023-07-31T14:46:06;7.07;;;6.00;;
15712;SDS011;7957;51.608;6.916;2023-07-31T14:48:33;6.67;;;5.60;;
15712;SDS011;7957;51.608;6.916;2023-07-31T14:51:00;6.50;;;5.30;;
15712;SDS011;7957;51.608;6.916;2023-07-31T14:53:27;7.93;;;5.30;;
15712;SDS011;7957;51.608;6.916;2023-07-31T14:55:55;7.47;;;5.07;;
15712;SDS011;7957;51.608;6.916;2023-07-31T14:58:22;6.53;;;5.10;;
15712;SDS011;7957;51.608;6.916;2023-07-31T15:00:51;5.60;;;5.10;;